createdAt,value
2017-05-07T00:01:51.647Z,9.00
2017-05-07T00:04:19.974Z,8.90
2017-05-07T00:06:48.545Z,8.90
2017-05-07T00:09:16.873Z,8.90
2017-05-07T00:17:32.198Z,8.80
2017-05-07T00:20:00.543Z,8.80
2017-05-07T00:22:28.883Z,8.80
2017-05-07T00:24:58.604Z,8.80
2017-05-07T00:27:26.949Z,8.70
2017-05-07T00:29:55.284Z,8.70
2017-05-07T00:32:23.817Z,8.70
2017-05-07T00:34:52.152Z,8.70
2017-05-07T00:37:20.500Z,8.60
2017-05-07T00:39:48.909Z,8.60
2017-05-07T00:42:17.238Z,8.60
2017-05-07T00:44:45.576Z,8.60
2017-05-07T00:47:14.063Z,8.60
2017-05-07T00:49:42.395Z,8.50
2017-05-07T00:52:11.476Z,8.50
2017-05-07T00:54:41.291Z,8.40
2017-05-07T00:57:09.627Z,8.40
2017-05-07T00:59:37.962Z,8.50
2017-05-07T01:02:07.224Z,8.40
2017-05-07T01:04:35.560Z,8.40
2017-05-07T01:07:03.889Z,8.40
2017-05-07T01:09:32.289Z,8.30
2017-05-07T01:12:00.601Z,8.30
2017-05-07T01:17:04.823Z,8.30
2017-05-07T01:19:33.561Z,8.30
2017-05-07T01:22:01.960Z,8.30
2017-05-07T01:24:31.177Z,8.20
2017-05-07T01:26:59.504Z,8.20
2017-05-07T01:29:27.848Z,8.10
2017-05-07T01:31:56.229Z,8.10
2017-05-07T01:34:24.567Z,8.10
2017-05-07T01:36:53.965Z,8.10
2017-05-07T01:39:23.472Z,8.10
2017-05-07T01:41:51.801Z,8.10
2017-05-07T01:44:20.132Z,8.00
2017-05-07T01:46:48.652Z,8.00
2017-05-07T01:49:17.022Z,8.00
2017-05-07T01:51:46.173Z,8.00
2017-05-07T01:54:14.710Z,8.00
2017-05-07T01:56:43.045Z,8.00
2017-05-07T01:59:12.124Z,7.90
2017-05-07T02:01:40.664Z,7.80
2017-05-07T02:04:09.004Z,7.80
2017-05-07T02:06:41.617Z,7.90
2017-05-07T02:09:09.947Z,7.90
2017-05-07T02:11:39.036Z,7.80
2017-05-07T02:14:07.536Z,7.90
2017-05-07T02:16:35.883Z,7.90
2017-05-07T02:19:04.319Z,7.80
2017-05-07T02:21:32.792Z,7.80
2017-05-07T02:24:01.122Z,7.80
2017-05-07T02:26:29.454Z,7.70
2017-05-07T02:28:57.916Z,7.60
2017-05-07T02:31:26.262Z,7.70
2017-05-07T02:33:55.342Z,7.70
2017-05-07T02:36:23.850Z,7.60
2017-05-07T02:38:52.600Z,7.60
2017-05-07T02:41:20.936Z,7.60
2017-05-07T02:43:49.429Z,7.50
2017-05-07T02:46:17.802Z,7.50
2017-05-07T02:48:46.130Z,7.50
2017-05-07T02:51:14.657Z,7.40
2017-05-07T02:53:43.045Z,7.40
2017-05-07T02:56:11.369Z,7.30
2017-05-07T02:58:39.833Z,7.30
2017-05-07T03:01:08.626Z,7.30
2017-05-07T03:03:36.961Z,7.30
2017-05-07T03:06:05.589Z,7.20
2017-05-07T03:08:34.049Z,7.20
2017-05-07T03:11:02.390Z,7.20
2017-05-07T03:13:30.905Z,7.20
2017-05-07T03:15:59.236Z,7.20
2017-05-07T03:18:28.323Z,7.20
2017-05-07T03:20:57.441Z,7.20
2017-05-07T03:23:25.782Z,7.20
2017-05-07T03:25:54.134Z,7.30
2017-05-07T03:28:23.632Z,7.20
2017-05-07T03:30:51.974Z,7.20
2017-05-07T03:33:22.023Z,7.20
2017-05-07T03:35:50.367Z,7.20
2017-05-07T03:38:19.441Z,7.20
2017-05-07T03:40:48.151Z,7.20
2017-05-07T03:43:16.592Z,7.20
2017-05-07T03:45:44.917Z,7.20
2017-05-07T03:48:13.385Z,7.20
2017-05-07T03:50:41.721Z,7.10
2017-05-07T03:53:10.068Z,7.10
2017-05-07T03:55:38.549Z,7.10
2017-05-07T03:58:06.896Z,7.20
2017-05-07T04:00:35.237Z,7.20
2017-05-07T04:03:03.614Z,7.20
2017-05-07T04:05:31.949Z,7.20
2017-05-07T04:08:00.296Z,7.20
2017-05-07T04:10:29.141Z,7.20
2017-05-07T04:12:57.479Z,7.20
2017-05-07T04:15:25.834Z,7.30
2017-05-07T04:17:54.445Z,7.30
2017-05-07T04:20:22.803Z,7.30
2017-05-07T04:22:51.895Z,7.30
2017-05-07T04:25:21.030Z,7.30
2017-05-07T04:27:49.386Z,7.40
2017-05-07T04:30:17.754Z,7.40
2017-05-07T04:32:47.195Z,7.50
2017-05-07T04:35:15.528Z,7.60
2017-05-07T04:37:44.626Z,7.60
2017-05-07T04:40:13.760Z,7.70
2017-05-07T04:42:42.142Z,7.70
2017-05-07T04:45:10.528Z,7.80
2017-05-07T04:47:38.924Z,7.80
2017-05-07T04:50:07.259Z,7.80
2017-05-07T04:52:35.595Z,7.80
2017-05-07T04:55:04.078Z,7.80
2017-05-07T04:57:32.417Z,7.80
2017-05-07T05:00:00.742Z,7.80
2017-05-07T05:02:29.887Z,7.90
2017-05-07T05:04:58.209Z,7.90
2017-05-07T05:07:27.276Z,7.90
2017-05-07T05:09:55.790Z,8.00
2017-05-07T05:12:24.145Z,8.20
2017-05-07T05:14:52.474Z,8.30
2017-05-07T05:17:20.990Z,8.50
2017-05-07T05:19:49.355Z,8.70
2017-05-07T05:22:47.514Z,8.80
2017-05-07T05:25:33.533Z,9.00
2017-05-07T05:28:04.705Z,9.00
2017-05-07T05:30:42.832Z,9.10
2017-05-07T05:33:11.982Z,9.10
2017-05-07T05:35:40.566Z,9.30
2017-05-07T05:38:08.918Z,9.50
2017-05-07T05:40:37.456Z,9.60
2017-05-07T05:43:06.561Z,9.60
2017-05-07T05:45:35.664Z,9.80
2017-05-07T05:48:04.791Z,9.90
2017-05-07T05:50:33.141Z,10.00
2017-05-07T05:53:01.475Z,10.10
2017-05-07T05:55:30.048Z,10.20
2017-05-07T05:57:58.390Z,10.30
2017-05-07T06:00:26.724Z,10.20
2017-05-07T06:02:55.243Z,10.20
2017-05-07T06:05:23.607Z,10.30
2017-05-07T06:07:52.684Z,10.20
2017-05-07T06:10:21.217Z,10.20
2017-05-07T06:12:49.599Z,10.20
2017-05-07T06:15:17.929Z,10.30
2017-05-07T06:17:47.247Z,10.20
2017-05-07T06:20:16.372Z,10.20
2017-05-07T06:22:44.718Z,10.20
2017-05-07T06:25:13.513Z,10.30
2017-05-07T06:27:41.865Z,10.40
2017-05-07T06:30:10.207Z,10.30
2017-05-07T06:32:38.694Z,10.50
2017-05-07T06:35:07.050Z,10.60
2017-05-07T06:37:35.401Z,10.70
2017-05-07T06:40:03.918Z,10.70
2017-05-07T06:42:32.273Z,10.70
2017-05-07T06:45:00.620Z,10.60
2017-05-07T06:47:29.767Z,10.60
2017-05-07T06:49:58.104Z,10.70
2017-05-07T06:52:26.457Z,10.90
2017-05-07T06:54:55.136Z,10.80
2017-05-07T06:57:23.493Z,11.00
2017-05-07T06:59:51.915Z,11.10
2017-05-07T07:02:21.161Z,11.30
2017-05-07T07:04:49.505Z,11.60
2017-05-07T07:07:18.600Z,11.70
2017-05-07T07:09:47.166Z,11.80
2017-05-07T07:12:15.543Z,11.90
2017-05-07T07:14:44.655Z,11.90
2017-05-07T07:17:13.144Z,11.90
2017-05-07T07:19:41.530Z,11.90
2017-05-07T07:22:09.910Z,12.00
2017-05-07T07:24:38.314Z,12.00
2017-05-07T07:27:06.678Z,12.00
2017-05-07T07:29:35.069Z,12.10
2017-05-07T07:32:03.612Z,12.20
2017-05-07T07:34:32.708Z,12.20
2017-05-07T07:37:02.729Z,12.30
2017-05-07T07:39:31.089Z,12.50
2017-05-07T07:41:59.475Z,12.50
2017-05-07T07:44:28.783Z,12.60
2017-05-07T07:46:57.880Z,12.70
2017-05-07T07:49:26.216Z,12.80
2017-05-07T07:51:54.600Z,12.90
2017-05-07T07:54:22.965Z,13.00
2017-05-07T07:56:51.301Z,13.20
2017-05-07T07:59:20.144Z,13.40
2017-05-07T08:01:48.484Z,13.50
2017-05-07T08:04:16.821Z,13.60
2017-05-07T08:06:46.104Z,13.80
2017-05-07T08:09:14.468Z,13.70
2017-05-07T08:11:42.797Z,13.60
2017-05-07T08:14:11.184Z,13.40
2017-05-07T08:16:39.512Z,13.40
2017-05-07T08:19:07.850Z,13.50
2017-05-07T08:21:36.508Z,13.70
2017-05-07T08:24:04.841Z,13.70
2017-05-07T08:26:33.196Z,13.70
2017-05-07T08:29:01.624Z,13.60
2017-05-07T08:31:30.726Z,13.70
2017-05-07T08:33:59.800Z,13.80
2017-05-07T08:36:28.417Z,13.90
2017-05-07T08:38:56.766Z,13.90
2017-05-07T08:41:25.100Z,13.80
2017-05-07T08:43:54.309Z,13.70
2017-05-07T08:46:22.640Z,13.60
2017-05-07T08:48:51.012Z,13.50
2017-05-07T08:51:19.532Z,13.40
2017-05-07T08:53:47.872Z,13.40
2017-05-07T08:56:16.216Z,13.40
2017-05-07T08:58:44.620Z,13.40
2017-05-07T09:01:13.686Z,13.50
2017-05-07T09:03:42.032Z,13.50
2017-05-07T09:06:10.400Z,13.50
2017-05-07T09:08:38.748Z,13.50
2017-05-07T09:11:07.853Z,13.50
2017-05-07T09:13:36.926Z,13.60
2017-05-07T09:16:26.968Z,13.70
2017-05-07T09:18:58.698Z,13.80
2017-05-07T09:21:27.090Z,13.90
2017-05-07T09:23:55.444Z,13.80
2017-05-07T09:26:23.810Z,13.90
2017-05-07T09:28:52.146Z,13.90
2017-05-07T09:31:20.510Z,14.00
2017-05-07T09:33:48.912Z,14.10
2017-05-07T09:36:17.419Z,14.00
2017-05-07T09:38:45.770Z,14.10
2017-05-07T09:41:14.353Z,14.20
2017-05-07T09:43:42.698Z,14.20
2017-05-07T09:46:11.103Z,14.30
2017-05-07T09:48:39.462Z,14.40
2017-05-07T09:51:07.788Z,14.40
2017-05-07T09:53:36.795Z,14.60
2017-05-07T09:56:05.876Z,14.70
2017-05-07T09:58:34.256Z,14.70
2017-05-07T10:01:02.603Z,14.80
2017-05-07T10:03:30.961Z,15.00
2017-05-07T10:05:59.353Z,15.10
2017-05-07T10:08:27.714Z,15.20
2017-05-07T10:10:56.116Z,15.20
2017-05-07T10:13:24.481Z,15.20
2017-05-07T10:15:53.270Z,15.30
2017-05-07T10:18:21.629Z,15.50
2017-05-07T10:20:49.981Z,15.60
2017-05-07T10:23:18.371Z,15.80
2017-05-07T10:25:46.714Z,15.80
2017-05-07T10:28:15.077Z,15.90
2017-05-07T10:30:44.412Z,16.00
2017-05-07T10:33:12.766Z,16.10
2017-05-07T10:35:41.094Z,16.00
2017-05-07T10:38:09.501Z,16.10
2017-05-07T10:40:37.851Z,16.00
2017-05-07T10:43:06.201Z,16.10
2017-05-07T10:45:34.568Z,16.20
2017-05-07T10:48:02.944Z,16.30
2017-05-07T10:50:31.285Z,16.30
2017-05-07T10:52:59.721Z,16.20
2017-05-07T10:55:28.840Z,16.40
2017-05-07T10:57:57.172Z,16.60
2017-05-07T11:00:25.534Z,16.70
2017-05-07T11:02:53.869Z,16.90
2017-05-07T11:05:22.220Z,16.90
2017-05-07T11:07:50.545Z,17.00
2017-05-07T11:10:18.901Z,17.10
2017-05-07T11:12:47.240Z,17.30
2017-05-07T11:15:15.604Z,17.40
2017-05-07T11:17:43.955Z,17.60
2017-05-07T11:20:12.300Z,17.60
2017-05-07T11:22:40.683Z,17.80
2017-05-07T11:25:09.038Z,17.90
2017-05-07T11:27:37.392Z,17.90
2017-05-07T11:30:05.740Z,17.70
2017-05-07T11:32:34.083Z,17.50
2017-05-07T11:35:02.476Z,17.50
2017-05-07T11:37:30.867Z,17.50
2017-05-07T11:39:59.233Z,17.50
2017-05-07T11:42:27.593Z,17.60
2017-05-07T11:44:56.735Z,17.70
2017-05-07T11:47:25.111Z,17.90
2017-05-07T11:49:53.542Z,18.10
2017-05-07T11:52:22.676Z,18.20
2017-05-07T11:54:51.025Z,18.30
2017-05-07T11:57:20.117Z,18.40
2017-05-07T11:59:49.216Z,18.70
2017-05-07T12:02:18.335Z,19.00
2017-05-07T12:04:46.660Z,19.30
2017-05-07T12:07:15.038Z,19.40
2017-05-07T12:09:43.380Z,19.40
2017-05-07T12:12:11.712Z,19.30
2017-05-07T12:14:40.852Z,19.00
2017-05-07T12:17:09.191Z,19.00
2017-05-07T12:19:38.369Z,18.90
2017-05-07T12:22:06.720Z,18.80
2017-05-07T12:24:35.079Z,18.80
2017-05-07T12:27:03.411Z,18.90
2017-05-07T12:29:32.505Z,18.90
2017-05-07T12:32:00.844Z,19.00
2017-05-07T12:34:29.232Z,19.10
2017-05-07T12:36:57.562Z,19.10
2017-05-07T12:39:26.658Z,19.20
2017-05-07T12:41:54.982Z,19.30
2017-05-07T12:44:23.436Z,19.30
2017-05-07T12:46:51.773Z,19.30
2017-05-07T12:49:20.841Z,19.40
2017-05-07T12:51:49.332Z,19.50
2017-05-07T12:54:17.667Z,19.80
2017-05-07T12:56:46.035Z,19.90
2017-05-07T12:59:14.380Z,20.00
2017-05-07T13:01:43.475Z,20.10
2017-05-07T13:04:12.547Z,20.20
2017-05-07T13:06:40.889Z,20.30
2017-05-07T13:09:09.223Z,20.30
2017-05-07T13:11:38.312Z,20.20
2017-05-07T13:14:06.641Z,20.20
2017-05-07T13:16:34.988Z,20.30
2017-05-07T13:19:03.342Z,20.30
2017-05-07T13:21:31.744Z,20.30
2017-05-07T13:24:00.115Z,20.20
2017-05-07T13:26:29.192Z,20.20
2017-05-07T13:28:57.560Z,20.10
2017-05-07T13:31:25.907Z,20.10
2017-05-07T13:33:54.285Z,20.10
2017-05-07T13:36:22.701Z,20.00
2017-05-07T13:38:51.052Z,20.00
2017-05-07T13:41:19.429Z,20.00
2017-05-07T13:43:47.799Z,19.90
2017-05-07T13:46:16.140Z,19.90
2017-05-07T13:48:45.240Z,19.90
2017-05-07T13:51:14.319Z,20.00
2017-05-07T13:53:43.413Z,20.20
2017-05-07T13:56:12.493Z,20.10
2017-05-07T13:58:40.920Z,20.10
2017-05-07T14:01:09.272Z,20.10
2017-05-07T14:03:38.357Z,19.80
2017-05-07T14:06:07.452Z,19.70
2017-05-07T14:08:35.781Z,19.70
2017-05-07T14:11:04.142Z,19.60
2017-05-07T14:13:32.487Z,19.60
2017-05-07T14:16:01.584Z,19.50
2017-05-07T14:18:30.654Z,19.50
2017-05-07T14:20:59.013Z,19.40
2017-05-07T14:23:27.400Z,19.30
2017-05-07T14:25:55.746Z,19.40
2017-05-07T14:28:24.088Z,19.50
2017-05-07T14:30:53.189Z,19.50
2017-05-07T14:33:22.273Z,19.60
2017-05-07T14:35:50.614Z,19.70
2017-05-07T14:38:18.987Z,19.80
2017-05-07T14:40:47.323Z,19.90
2017-05-07T14:43:15.683Z,19.90
2017-05-07T14:45:44.036Z,19.90
2017-05-07T14:48:12.404Z,19.70
2017-05-07T14:50:40.792Z,19.60
2017-05-07T14:53:09.153Z,19.50
2017-05-07T14:55:37.520Z,19.50
2017-05-07T14:58:05.889Z,19.40
2017-05-07T15:00:34.258Z,19.40
2017-05-07T15:03:06.996Z,19.40
2017-05-07T15:05:35.675Z,19.30
2017-05-07T15:08:05.116Z,19.10
2017-05-07T15:10:33.547Z,19.10
2017-05-07T15:13:01.884Z,19.10
2017-05-07T15:15:30.261Z,19.10
2017-05-07T15:17:58.614Z,19.00
2017-05-07T15:20:27.729Z,18.90
2017-05-07T15:22:56.851Z,18.80
2017-05-07T15:25:25.207Z,18.80
2017-05-07T15:27:53.532Z,18.80
2017-05-07T15:30:22.222Z,18.70
2017-05-07T15:32:50.894Z,18.70
2017-05-07T15:35:19.249Z,18.70
2017-05-07T15:37:47.581Z,18.70
2017-05-07T15:40:15.928Z,18.60
2017-05-07T15:42:44.270Z,18.50
2017-05-07T15:45:12.617Z,18.50
2017-05-07T15:47:40.963Z,18.50
2017-05-07T15:50:09.341Z,18.70
2017-05-07T15:52:37.692Z,18.80
2017-05-07T15:55:06.021Z,18.70
2017-05-07T15:57:34.385Z,18.70
2017-05-07T16:00:02.713Z,18.80
2017-05-07T16:02:31.100Z,18.80
2017-05-07T16:04:59.472Z,18.90
2017-05-07T16:07:27.833Z,18.90
2017-05-07T16:09:56.928Z,18.80
2017-05-07T16:12:26.017Z,18.60
2017-05-07T16:14:55.089Z,18.50
2017-05-07T16:27:01.938Z,18.80
2017-05-07T16:29:31.084Z,19.10
2017-05-07T16:32:14.308Z,19.30
2017-05-07T16:34:42.676Z,19.30
2017-05-07T16:37:11.017Z,19.30
2017-05-07T16:39:39.620Z,19.00
2017-05-07T16:42:08.938Z,18.80
2017-05-07T16:44:37.309Z,18.60
2017-05-07T16:47:05.661Z,18.60
2017-05-07T16:49:34.072Z,18.40
2017-05-07T16:52:02.434Z,18.20
2017-05-07T16:54:30.871Z,18.10
2017-05-07T16:56:59.290Z,18.00
2017-05-07T16:59:27.724Z,18.10
2017-05-07T17:01:56.068Z,18.10
2017-05-07T17:04:24.941Z,18.10
2017-05-07T17:07:10.748Z,18.10
2017-05-07T17:09:39.077Z,18.10
2017-05-07T17:12:07.532Z,18.00
2017-05-07T17:14:35.934Z,18.00
2017-05-07T17:17:04.310Z,17.80
2017-05-07T17:19:32.673Z,17.70
2017-05-07T17:22:01.085Z,17.70
2017-05-07T17:24:29.417Z,17.60
2017-05-07T17:26:57.782Z,17.50
2017-05-07T17:29:27.096Z,17.30
2017-05-07T17:31:55.546Z,17.10
2017-05-07T17:34:23.938Z,17.00
2017-05-07T17:36:52.315Z,16.90
2017-05-07T17:39:20.853Z,16.70
2017-05-07T17:41:49.238Z,16.60
2017-05-07T17:44:18.424Z,16.40
2017-05-07T17:46:47.575Z,16.30
2017-05-07T17:49:15.908Z,16.30
2017-05-07T17:51:44.266Z,16.20
2017-05-07T17:54:12.834Z,16.10
2017-05-07T17:56:41.326Z,16.10
2017-05-07T17:59:09.693Z,16.00
2017-05-07T18:01:38.276Z,15.90
2017-05-07T18:04:06.660Z,15.70
2017-05-07T18:06:35.443Z,15.60
2017-05-07T18:09:03.851Z,15.40
2017-05-07T18:11:32.725Z,15.30
2017-05-07T18:14:01.103Z,15.20
2017-05-07T18:16:29.499Z,15.00
2017-05-07T18:18:57.949Z,14.70
2017-05-07T18:21:26.352Z,14.60
2017-05-07T18:23:54.719Z,14.40
2017-05-07T18:26:23.616Z,14.30
2017-05-07T18:28:52.036Z,14.20
2017-05-07T18:31:21.156Z,14.00
2017-05-07T18:33:49.533Z,13.80
2017-05-07T18:36:17.882Z,13.70
2017-05-07T18:38:46.257Z,13.60
2017-05-07T18:41:15.661Z,13.50
2017-05-07T18:43:44.045Z,13.40
2017-05-07T18:46:12.443Z,13.20
2017-05-07T18:48:40.842Z,13.10
2017-05-07T18:51:09.828Z,13.00
2017-05-07T18:53:38.167Z,12.80
2017-05-07T18:56:07.304Z,12.70
2017-05-07T18:58:35.933Z,12.60
2017-05-07T19:01:05.699Z,12.70
2017-05-07T19:03:34.033Z,12.60
2017-05-07T19:06:03.149Z,12.50
2017-05-07T19:08:32.274Z,12.40
2017-05-07T19:11:00.679Z,12.40
2017-05-07T19:13:29.052Z,12.40
2017-05-07T19:15:57.412Z,12.30
2017-05-07T19:18:25.761Z,12.20
2017-05-07T19:20:55.067Z,12.10
2017-05-07T19:23:23.428Z,12.00
2017-05-07T19:25:51.786Z,11.90
2017-05-07T19:28:20.901Z,11.90
2017-05-07T19:30:49.239Z,11.90
2017-05-07T19:33:17.592Z,11.90
2017-05-07T19:35:46.138Z,11.70
2017-05-07T19:38:14.519Z,11.70
2017-05-07T19:40:42.852Z,11.60
2017-05-07T19:43:11.203Z,11.50
2017-05-07T19:45:39.553Z,11.40
2017-05-07T19:48:08.872Z,11.30
2017-05-07T19:50:37.220Z,11.30
2017-05-07T19:53:05.581Z,11.30
2017-05-07T19:55:33.920Z,11.40
2017-05-07T19:58:02.293Z,11.40
2017-05-07T20:00:30.644Z,11.40
2017-05-07T20:02:59.013Z,11.40
2017-05-07T20:05:27.362Z,11.30
2017-05-07T20:07:55.995Z,11.20
2017-05-07T20:10:24.345Z,11.20
2017-05-07T20:12:53.504Z,11.10
2017-05-07T20:15:21.866Z,11.10
2017-05-07T20:17:50.231Z,11.00
2017-05-07T20:20:18.626Z,11.00
2017-05-07T20:22:47.252Z,11.00
2017-05-07T20:25:15.625Z,10.90
2017-05-07T20:27:44.730Z,10.90
2017-05-07T20:30:13.823Z,10.90
2017-05-07T20:32:42.908Z,10.90
2017-05-07T20:35:12.017Z,10.90
2017-05-07T20:37:41.096Z,10.90
2017-05-07T20:40:10.199Z,10.90
2017-05-07T20:42:39.284Z,10.90
2017-05-07T20:45:08.414Z,10.90
2017-05-07T20:47:36.751Z,10.90
2017-05-07T20:50:05.686Z,10.90
2017-05-07T20:52:34.028Z,10.80
2017-05-07T20:55:04.558Z,10.70
2017-05-07T20:57:33.000Z,10.70
2017-05-07T21:00:02.684Z,10.70
2017-05-07T21:02:31.216Z,10.70
2017-05-07T21:05:00.537Z,10.70
2017-05-07T21:07:29.641Z,10.70
2017-05-07T21:09:58.727Z,10.70
2017-05-07T21:12:28.146Z,10.70
2017-05-07T21:14:56.484Z,10.60
2017-05-07T21:17:25.752Z,10.60
2017-05-07T21:19:54.449Z,10.70
2017-05-07T21:22:22.820Z,10.70
2017-05-07T21:24:51.159Z,10.80
2017-05-07T21:27:19.694Z,10.80
2017-05-07T21:29:48.045Z,10.80
2017-05-07T21:32:16.380Z,10.80
2017-05-07T21:34:45.742Z,10.70
2017-05-07T21:37:14.091Z,10.70
2017-05-07T21:39:42.428Z,10.60
2017-05-07T21:42:10.834Z,10.60
2017-05-07T21:44:39.178Z,10.50
2017-05-07T21:47:07.557Z,10.50
2017-05-07T21:49:35.942Z,10.40
2017-05-07T21:52:04.286Z,10.40
2017-05-07T21:54:32.619Z,10.50
2017-05-07T21:57:02.139Z,10.40
2017-05-07T21:59:30.487Z,10.50
2017-05-07T22:01:58.829Z,10.40
2017-05-07T22:04:27.277Z,10.50
2017-05-07T22:06:55.620Z,10.40
2017-05-07T22:09:23.955Z,10.30
2017-05-07T22:11:52.339Z,10.20
2017-05-07T22:14:20.672Z,10.10
2017-05-07T22:16:49.104Z,10.10
2017-05-07T22:19:17.629Z,10.00
2017-05-07T22:21:46.706Z,9.90
2017-05-07T22:24:15.041Z,10.00
2017-05-07T22:26:43.419Z,10.00
2017-05-07T22:29:11.741Z,9.90
2017-05-07T22:31:40.064Z,9.70
2017-05-07T22:34:08.525Z,9.70
2017-05-07T22:36:36.863Z,9.60
2017-05-07T22:39:05.199Z,9.60
2017-05-07T22:41:33.564Z,9.50
2017-05-07T22:44:01.900Z,9.50
2017-05-07T22:46:32.153Z,9.60
2017-05-07T22:49:00.592Z,9.50
2017-05-07T22:51:28.921Z,9.60
2017-05-07T22:53:57.263Z,9.60
2017-05-07T22:56:26.605Z,9.60
2017-05-07T22:58:54.938Z,9.60
2017-05-07T23:01:23.264Z,9.50
2017-05-07T23:03:52.027Z,9.50
2017-05-07T23:06:20.344Z,9.50
2017-05-07T23:08:48.671Z,9.50
2017-05-07T23:11:18.083Z,9.40
2017-05-07T23:13:46.431Z,9.50
2017-05-07T23:16:14.773Z,9.50
2017-05-07T23:18:43.167Z,9.50
2017-05-07T23:21:11.493Z,9.50
2017-05-07T23:23:40.556Z,9.50
2017-05-07T23:26:09.172Z,9.50
2017-05-07T23:28:37.568Z,9.50
2017-05-07T23:31:05.915Z,9.50
2017-05-07T23:33:35.325Z,9.50
2017-05-07T23:36:04.405Z,9.50
2017-05-07T23:38:33.483Z,9.50
2017-05-07T23:41:01.863Z,9.60
2017-05-07T23:43:30.202Z,9.60
2017-05-07T23:45:58.528Z,9.50
2017-05-07T23:48:26.901Z,9.60
2017-05-07T23:50:55.229Z,9.60
2017-05-07T23:53:23.560Z,9.70
2017-05-07T23:55:52.167Z,9.70
2017-05-07T23:58:20.515Z,9.60
